Terminal Aerodrome Forecast
Issued by NWS

Home | Current Version | Previous Version | Text Only | Print | Product List | Glossary On
Versions: 1 2 3 4 5 6 7 8 9 10 11 12 13 14 15
000
FTUS46 KHNX 261140
TAFFAT
TAF
KFAT 261140Z 2612/2712 VRB03KT 4SM BR SKC
      TEMPO 2615/2618 2SM BR=

USA.gov is the U.S. government's official web portal to all federal, state and local government web resources and services.